createdAt,value
2019-05-15T00:00:33.141Z,0.3
2019-05-15T00:02:15.409Z,0.2
2019-05-15T00:03:29.646Z,0
2019-05-15T00:04:03.597Z,0
2019-05-15T00:05:15.364Z,0.2
2019-05-15T00:06:29.432Z,0.4
2019-05-15T00:07:03.389Z,0.2
2019-05-15T00:08:15.321Z,0
2019-05-15T00:09:29.518Z,0.2
2019-05-15T00:10:03.372Z,0
2019-05-15T00:11:15.437Z,0.2
2019-05-15T00:12:29.343Z,0.2
2019-05-15T00:13:03.434Z,0
2019-05-15T00:14:15.373Z,0.4
2019-05-15T00:15:28.701Z,0
2019-05-15T00:16:03.396Z,0.2
2019-05-15T00:17:15.338Z,0.2
2019-05-15T00:18:29.051Z,0.2
2019-05-15T00:19:03.393Z,0.2
2019-05-15T00:20:15.451Z,0
2019-05-15T00:21:29.525Z,0.4
2019-05-15T00:22:03.345Z,0
2019-05-15T00:23:15.395Z,0.2
2019-05-15T00:24:29.609Z,0
2019-05-15T00:25:03.426Z,0.2
2019-05-15T00:26:15.377Z,0.2
2019-05-15T00:27:29.353Z,0
2019-05-15T00:28:03.422Z,0.2
2019-05-15T00:29:20.399Z,0.2
2019-05-15T00:30:29.702Z,0.4
2019-05-15T00:31:03.391Z,0.2
2019-05-15T00:32:15.440Z,0.2
2019-05-15T00:33:29.330Z,0.2
2019-05-15T00:34:03.684Z,0
2019-05-15T00:35:15.383Z,0
2019-05-15T00:36:29.487Z,0.6
2019-05-15T00:37:03.419Z,0.2
2019-05-15T00:38:15.398Z,0
2019-05-15T00:39:29.259Z,0
2019-05-15T00:40:03.417Z,0
2019-05-15T00:41:15.441Z,0.4
2019-05-15T00:41:55.529Z,0
2019-05-15T00:43:03.349Z,0
2019-05-15T00:44:15.398Z,0
2019-05-15T00:45:28.652Z,0.2
2019-05-15T00:46:03.442Z,0.2
2019-05-15T00:47:15.370Z,0
2019-05-15T00:48:29.981Z,0
2019-05-15T00:49:03.411Z,0
2019-05-15T00:50:15.338Z,0
2019-05-15T00:51:29.354Z,0
2019-05-15T00:52:03.509Z,0.4
2019-05-15T00:53:15.420Z,0.4
2019-05-15T00:54:29.074Z,0
2019-05-15T00:55:03.433Z,0.4
2019-05-15T00:56:15.411Z,0
2019-05-15T00:57:29.220Z,0.2
2019-05-15T00:58:03.406Z,0.4
2019-05-15T00:59:30.538Z,0.2
2019-05-15T01:00:28.994Z,0.2
2019-05-15T01:01:03.380Z,0
2019-05-15T01:02:17.577Z,0
2019-05-15T01:03:28.756Z,0
2019-05-15T01:04:03.378Z,0
2019-05-15T01:04:51.348Z,0
2019-05-15T01:05:28.829Z,0
2019-05-15T01:06:03.408Z,0.2
2019-05-15T01:07:15.415Z,0
2019-05-15T01:08:29.334Z,0
2019-05-15T01:09:03.382Z,0.2
2019-05-15T01:10:15.428Z,0
2019-05-15T01:11:29.323Z,0
2019-05-15T01:12:03.346Z,0
2019-05-15T01:13:28.983Z,0
2019-05-15T01:14:03.513Z,0
2019-05-15T01:15:15.460Z,0.4
2019-05-15T01:16:28.956Z,0
2019-05-15T01:17:03.378Z,0.2
2019-05-15T01:18:15.429Z,0
2019-05-15T01:19:29.473Z,0
2019-05-15T01:20:03.442Z,0
2019-05-15T01:21:15.399Z,0
2019-05-15T01:22:03.512Z,0
2019-05-15T01:23:15.464Z,0.6
2019-05-15T01:24:29.134Z,0.2
2019-05-15T01:25:03.351Z,0.4
2019-05-15T01:26:15.429Z,0
2019-05-15T01:27:29.901Z,0.2
2019-05-15T01:28:03.463Z,0
2019-05-15T01:29:15.402Z,0.2
2019-05-15T01:30:29.451Z,0.2
2019-05-15T01:31:03.420Z,0.2
2019-05-15T01:32:15.352Z,0
2019-05-15T01:33:29.152Z,0.2
2019-05-15T01:34:03.375Z,0
2019-05-15T01:35:15.443Z,0
2019-05-15T01:36:29.636Z,0
2019-05-15T01:37:03.471Z,0
2019-05-15T01:38:15.420Z,0
2019-05-15T01:39:29.837Z,0
2019-05-15T01:40:03.424Z,0
2019-05-15T01:41:15.352Z,0.2
2019-05-15T01:42:28.881Z,0.4
2019-05-15T01:43:03.457Z,0.4
2019-05-15T01:44:15.434Z,0
2019-05-15T01:45:29.480Z,0
2019-05-15T01:46:03.367Z,0
2019-05-15T01:47:15.429Z,0.2
2019-05-15T01:48:29.154Z,0
2019-05-15T01:49:03.432Z,0
2019-05-15T01:50:15.403Z,0
2019-05-15T01:51:29.389Z,0
2019-05-15T01:52:03.417Z,0
2019-05-15T01:53:15.431Z,0
2019-05-15T01:54:29.758Z,0
2019-05-15T01:55:03.426Z,0.4
2019-05-15T01:55:40.533Z,0.6
2019-05-15T01:56:51.411Z,0.4
2019-05-15T01:57:29.469Z,0.2
2019-05-15T01:58:39.471Z,0.2
2019-05-15T02:00:01.328Z,0.4
2019-05-15T02:01:40.145Z,0
2019-05-15T02:02:51.473Z,0.4
2019-05-15T02:03:29.716Z,0.6
2019-05-15T02:04:40.213Z,0.2
2019-05-15T02:05:51.421Z,0
2019-05-15T02:06:29.346Z,0
2019-05-15T02:07:40.110Z,0.2
2019-05-15T02:08:51.393Z,0
2019-05-15T02:09:28.961Z,0.2
2019-05-15T02:10:40.206Z,0
2019-05-15T02:11:51.368Z,0
2019-05-15T02:12:29.413Z,0
2019-05-15T02:13:39.865Z,0
2019-05-15T02:14:51.475Z,0
2019-05-15T02:15:29.382Z,0
2019-05-15T02:16:40.208Z,0
2019-05-15T02:17:51.421Z,0
2019-05-15T02:18:29.394Z,0
2019-05-15T02:19:40.045Z,0.4
2019-05-15T02:20:51.385Z,0.4
2019-05-15T02:21:29.598Z,0.2
2019-05-15T02:22:43.408Z,0
2019-05-15T02:23:51.469Z,0
2019-05-15T02:24:29.244Z,0.4
2019-05-15T02:25:39.761Z,0.6
2019-05-15T02:26:51.441Z,0
2019-05-15T02:27:30.188Z,0.2
2019-05-15T02:28:39.497Z,0.4
2019-05-15T02:29:25.605Z,0.8
2019-05-15T02:30:41.758Z,0
2019-05-15T02:31:51.487Z,0.2
2019-05-15T02:32:30.983Z,0
2019-05-15T02:33:41.105Z,0.2
2019-05-15T02:34:51.446Z,0.4
2019-05-15T02:35:30.430Z,0.8
2019-05-15T02:36:40.991Z,0.6
2019-05-15T02:37:51.404Z,0
2019-05-15T02:38:30.552Z,0.2
2019-05-15T02:39:18.699Z,0.2
2019-05-15T02:40:30.346Z,0.2
2019-05-15T02:41:40.620Z,0.4
2019-05-15T02:42:51.443Z,0.4
2019-05-15T02:43:30.696Z,0.4
2019-05-15T02:44:40.975Z,0.6
2019-05-15T02:45:52.033Z,0.2
2019-05-15T02:46:30.849Z,0.6
2019-05-15T02:47:40.699Z,0.4
2019-05-15T02:48:51.494Z,0.2
2019-05-15T02:49:30.981Z,0
2019-05-15T02:50:40.201Z,0.2
2019-05-15T02:51:51.516Z,0.2
2019-05-15T02:52:30.404Z,0.2
2019-05-15T02:53:40.579Z,0.2
2019-05-15T02:54:51.417Z,0
2019-05-15T02:55:30.459Z,0.4
2019-05-15T02:56:40.263Z,0.6
2019-05-15T02:57:51.403Z,0.6
2019-05-15T02:58:30.222Z,0.6
2019-05-15T02:59:40.567Z,0.8
2019-05-15T03:00:53.642Z,0.4
2019-05-15T03:01:29.406Z,0.8
2019-05-15T03:02:42.435Z,0.6
2019-05-15T03:03:51.442Z,0
2019-05-15T03:04:30.054Z,0.2
2019-05-15T03:05:41.812Z,0.4
2019-05-15T03:06:51.397Z,0.4
2019-05-15T03:07:30.443Z,0.4
2019-05-15T03:08:40.953Z,0.6
2019-05-15T03:09:51.482Z,0.4
2019-05-15T03:10:30.532Z,0.5
2019-05-15T03:11:41.873Z,0.6
2019-05-15T03:12:51.451Z,0.8
2019-05-15T03:13:30.708Z,0.4
2019-05-15T03:14:40.794Z,0.3
2019-05-15T03:15:51.456Z,0.8
2019-05-15T03:16:31.230Z,0.8
2019-05-15T03:17:41.663Z,0.4
2019-05-15T03:19:00.225Z,0.4
2019-05-15T03:20:40.157Z,0.6
2019-05-15T03:21:51.484Z,0.6
2019-05-15T03:22:30.283Z,0.6
2019-05-15T03:23:41.421Z,0.8
2019-05-15T03:24:51.446Z,0.8
2019-05-15T03:25:30.498Z,0.6
2019-05-15T03:26:40.341Z,0.6
2019-05-15T03:27:51.407Z,0.6
2019-05-15T03:28:30.318Z,0.8
2019-05-15T03:29:41.363Z,0.6
2019-05-15T03:30:22.724Z,0.4
2019-05-15T03:32:00.466Z,0.2
2019-05-15T03:32:24.698Z,0.6
2019-05-15T03:33:17.662Z,0.7
2019-05-15T03:34:55.594Z,0.6
2019-05-15T03:35:13.087Z,0.8
2019-05-15T03:36:54.410Z,0.8
2019-05-15T03:37:35.006Z,0.6
2019-05-15T03:38:40.441Z,0.4
2019-05-15T03:39:52.875Z,0.6
2019-05-15T03:40:30.739Z,0.8
2019-05-15T03:41:40.230Z,0.6
2019-05-15T03:42:51.545Z,0.8
2019-05-15T03:43:30.140Z,0.4
2019-05-15T03:44:40.274Z,0.6
2019-05-15T03:45:19.457Z,0.6
2019-05-15T03:46:30.019Z,0.4
2019-05-15T03:47:41.250Z,0.6
2019-05-15T03:48:51.448Z,0.8
2019-05-15T03:49:30.256Z,0.8
2019-05-15T03:50:41.341Z,1
2019-05-15T03:51:51.508Z,0.2
2019-05-15T03:52:30.359Z,0.6
2019-05-15T03:53:40.921Z,1
2019-05-15T03:54:19.309Z,0.8
2019-05-15T03:55:30.469Z,0.6
2019-05-15T03:56:40.429Z,0.8
2019-05-15T03:57:23.847Z,0.8
2019-05-15T03:58:29.742Z,0.6
2019-05-15T03:59:40.764Z,0.8
2019-05-15T04:00:51.680Z,0.7
2019-05-15T04:01:44.448Z,0.7
2019-05-15T04:02:40.592Z,0.4
2019-05-15T04:03:51.495Z,0.9
2019-05-15T04:04:30.500Z,0.8
2019-05-15T04:05:40.179Z,0.8
2019-05-15T04:06:51.464Z,0.6
2019-05-15T04:07:30.119Z,0.6
2019-05-15T04:08:40.147Z,0.8
2019-05-15T04:09:51.427Z,0.8
2019-05-15T04:10:29.728Z,0.8
2019-05-15T04:11:15.418Z,0.6
2019-05-15T04:11:51.466Z,0.6
2019-05-15T04:12:29.911Z,0.8
2019-05-15T04:13:40.709Z,0.6
2019-05-15T04:14:51.483Z,0.6
2019-05-15T04:15:30.959Z,0.6
2019-05-15T04:16:40.194Z,0.8
2019-05-15T04:17:51.418Z,0.6
2019-05-15T04:18:30.150Z,0.6
2019-05-15T04:19:40.158Z,0.8
2019-05-15T04:20:51.492Z,0.8
2019-05-15T04:21:30.878Z,0.4
2019-05-15T04:22:41.286Z,0.9
2019-05-15T04:23:51.464Z,0.8
2019-05-15T04:24:30.798Z,0.4
2019-05-15T04:25:40.238Z,0.7
2019-05-15T04:26:51.431Z,0.8
2019-05-15T04:27:29.897Z,1
2019-05-15T04:28:42.892Z,0.9
2019-05-15T04:29:51.407Z,1
2019-05-15T04:30:31.054Z,1
2019-05-15T04:32:10.085Z,0.8
2019-05-15T04:32:51.475Z,1.2
2019-05-15T04:33:30.436Z,1.1
2019-05-15T04:34:40.622Z,0.4
2019-05-15T04:35:51.512Z,0.8
2019-05-15T04:36:30.399Z,0.9
2019-05-15T04:37:41.799Z,0.4
2019-05-15T04:38:51.405Z,0.8
2019-05-15T04:39:30.458Z,0.8
2019-05-15T04:40:40.781Z,0.9
2019-05-15T04:41:51.531Z,0.8
2019-05-15T04:42:30.716Z,0.8
2019-05-15T04:43:49.834Z,0.8
2019-05-15T04:44:51.536Z,0.9
2019-05-15T04:45:39.578Z,0.9
2019-05-15T04:46:40.184Z,1.1
2019-05-15T04:47:51.523Z,0.8
2019-05-15T04:48:29.916Z,0.4
2019-05-15T04:49:40.361Z,0.8
2019-05-15T04:50:51.444Z,0.9
2019-05-15T04:51:31.283Z,0.7
2019-05-15T04:52:44.222Z,0.9
2019-05-15T04:53:51.554Z,0.8
2019-05-15T04:54:29.836Z,0.8
2019-05-15T04:55:41.611Z,0.8
2019-05-15T04:56:30.209Z,0.6
2019-05-15T04:57:41.483Z,0.6
2019-05-15T04:58:52.041Z,0.2
2019-05-15T04:59:30.877Z,0.9
2019-05-15T05:00:40.901Z,0.6
2019-05-15T05:02:28.625Z,0.6
2019-05-15T05:03:40.492Z,0.7
2019-05-15T05:05:03.544Z,1.1
2019-05-15T05:05:39.723Z,1.1
2019-05-15T05:06:51.430Z,0.8
2019-05-15T05:07:30.427Z,0.9
2019-05-15T05:08:40.854Z,0.7
2019-05-15T05:09:51.574Z,1.1
2019-05-15T05:10:29.825Z,0.8
2019-05-15T05:11:39.579Z,1
2019-05-15T05:12:51.875Z,0.8
2019-05-15T05:13:40.317Z,0.8
2019-05-15T05:14:51.572Z,0.8
2019-05-15T05:15:30.050Z,1.3
2019-05-15T05:16:40.392Z,0.7
2019-05-15T05:17:51.501Z,1.4
2019-05-15T05:18:30.607Z,1.7
2019-05-15T05:19:41.150Z,1.4
2019-05-15T05:20:51.462Z,0.6
2019-05-15T05:21:28.685Z,0.6
2019-05-15T05:22:15.464Z,1.6
2019-05-15T05:22:51.553Z,1.2
2019-05-15T05:23:29.219Z,1
2019-05-15T05:24:39.415Z,1
2019-05-15T05:25:51.489Z,1.2
2019-05-15T05:26:30.107Z,1.2
2019-05-15T05:27:39.550Z,1.5
2019-05-15T05:28:51.445Z,0.8
2019-05-15T05:29:28.894Z,0.6
2019-05-15T05:30:39.541Z,1.4
2019-05-15T05:32:38.721Z,0.6
2019-05-15T05:34:03.491Z,1.3
2019-05-15T05:35:15.471Z,1
2019-05-15T05:37:03.484Z,1
2019-05-15T05:38:15.436Z,0.8
2019-05-15T05:40:03.453Z,0.8
2019-05-15T05:41:15.522Z,0.8
2019-05-15T05:43:03.539Z,0.9
2019-05-15T05:44:15.518Z,0.8
2019-05-15T05:46:03.504Z,0.8
2019-05-15T05:47:15.464Z,0.9
2019-05-15T05:49:03.476Z,1.3
2019-05-15T05:50:15.519Z,0.8
2019-05-15T05:52:03.396Z,0.8
2019-05-15T05:53:15.485Z,0.8
2019-05-15T05:55:03.532Z,0.6
2019-05-15T05:56:17.573Z,0.8
2019-05-15T05:58:03.489Z,0.8
2019-05-15T05:59:15.439Z,1.1
2019-05-15T06:01:03.485Z,1
2019-05-15T06:01:45.017Z,0.8
2019-05-15T06:02:53.566Z,1
2019-05-15T06:04:03.415Z,1
2019-05-15T06:05:15.479Z,1
2019-05-15T06:07:15.106Z,1
2019-05-15T06:08:15.475Z,0.6
2019-05-15T06:10:03.466Z,0.7
2019-05-15T06:11:15.401Z,1.1
2019-05-15T06:13:03.505Z,0.8
2019-05-15T06:14:15.483Z,0.9
2019-05-15T06:16:03.499Z,1.3
2019-05-15T06:17:15.466Z,0.9
2019-05-15T06:19:03.572Z,0.8
2019-05-15T06:20:15.437Z,1.1
2019-05-15T06:22:03.475Z,2.1
2019-05-15T06:23:21.138Z,2
2019-05-15T06:24:07.802Z,2.4
2019-05-15T06:26:15.474Z,1.2
2019-05-15T06:28:03.572Z,1.9
2019-05-15T06:29:17.726Z,1.1
2019-05-15T06:30:31.793Z,1.1
2019-05-15T06:32:15.392Z,0.6
2019-05-15T06:33:13.749Z,0.8
2019-05-15T06:34:03.405Z,1.1
2019-05-15T06:35:15.518Z,0.8
2019-05-15T06:37:03.436Z,1
2019-05-15T06:38:15.535Z,0.9
2019-05-15T06:40:03.492Z,1
2019-05-15T06:41:17.927Z,0.8
2019-05-15T06:43:03.455Z,1
2019-05-15T06:44:15.393Z,1.5
2019-05-15T06:46:03.446Z,1.1
2019-05-15T06:47:17.516Z,1
2019-05-15T06:49:03.394Z,1.2
2019-05-15T06:50:15.433Z,0.9
2019-05-15T06:52:03.458Z,0.6
2019-05-15T06:53:15.451Z,0.4
2019-05-15T06:55:03.439Z,1.1
2019-05-15T06:56:15.489Z,0.9
2019-05-15T06:58:03.478Z,1.1
2019-05-15T06:59:15.473Z,1.2
2019-05-15T07:01:03.494Z,0.8
2019-05-15T07:02:15.456Z,0.6
2019-05-15T07:04:03.483Z,0.8
2019-05-15T07:05:15.378Z,0.8
2019-05-15T07:05:52.029Z,0.9
2019-05-15T07:07:03.428Z,1.2
2019-05-15T07:08:18.421Z,1.7
2019-05-15T07:10:03.388Z,0.8
2019-05-15T07:11:15.478Z,1
2019-05-15T07:13:03.452Z,1
2019-05-15T07:14:15.450Z,0.8
2019-05-15T07:16:03.476Z,1.4
2019-05-15T07:17:17.406Z,0.9
2019-05-15T07:19:03.448Z,0.6
2019-05-15T07:20:15.468Z,0.8
2019-05-15T07:22:03.433Z,1.1
2019-05-15T07:23:18.309Z,1.1
2019-05-15T07:23:51.917Z,0.8
2019-05-15T07:25:03.450Z,0.8
2019-05-15T07:26:15.442Z,0.8
2019-05-15T07:28:03.411Z,0.4
2019-05-15T07:29:15.581Z,0.8
2019-05-15T07:31:03.402Z,0.6
2019-05-15T07:32:15.430Z,0.8
2019-05-15T07:33:44.394Z,1.1
2019-05-15T07:35:15.425Z,0.8
2019-05-15T07:36:40.001Z,0.7
2019-05-15T07:37:15.482Z,0.7
2019-05-15T07:39:03.364Z,0.9
2019-05-15T07:40:15.478Z,0.6
2019-05-15T07:41:04.946Z,0.4
2019-05-15T07:42:03.495Z,1
2019-05-15T07:43:17.544Z,0.8
2019-05-15T07:45:03.494Z,1.5
2019-05-15T07:45:52.267Z,1.4
2019-05-15T07:48:03.418Z,0.8
2019-05-15T07:49:17.606Z,0.8
2019-05-15T07:51:03.408Z,0.9
2019-05-15T07:52:15.411Z,0.6
2019-05-15T07:54:03.669Z,0.9
2019-05-15T07:55:15.440Z,1
2019-05-15T07:55:52.281Z,1
2019-05-15T07:57:03.495Z,0.8
2019-05-15T07:58:15.563Z,1
2019-05-15T07:58:53.554Z,0.8
2019-05-15T08:00:03.418Z,1.3
2019-05-15T08:01:15.510Z,0.9
2019-05-15T08:03:03.399Z,1.2
2019-05-15T08:04:28.660Z,1
2019-05-15T08:04:33.541Z,1.2
2019-05-15T08:06:04.046Z,0.9
2019-05-15T08:07:15.395Z,0.9
2019-05-15T08:09:03.448Z,1.1
2019-05-15T08:10:17.735Z,0.8
2019-05-15T08:12:04.225Z,0.8
2019-05-15T08:13:15.431Z,1
2019-05-15T08:15:03.482Z,0.9
2019-05-15T08:16:17.935Z,1.4
2019-05-15T08:18:13.452Z,1.3
2019-05-15T08:19:15.406Z,1.5
2019-05-15T08:21:03.520Z,1.1
2019-05-15T08:22:18.503Z,1
2019-05-15T08:24:03.353Z,1.1
2019-05-15T08:25:35.975Z,1.3
2019-05-15T08:27:03.446Z,0.8
2019-05-15T08:28:15.406Z,0.8
2019-05-15T08:30:03.495Z,1.1
2019-05-15T08:31:15.426Z,1.4
2019-05-15T08:33:03.563Z,1.2
2019-05-15T08:34:20.177Z,1.3
2019-05-15T08:36:03.379Z,0.8
2019-05-15T08:37:15.493Z,0.9
2019-05-15T08:39:03.439Z,0.7
2019-05-15T08:40:17.723Z,0.6
2019-05-15T08:42:03.409Z,1.1
2019-05-15T08:42:42.763Z,0.8
2019-05-15T08:45:03.393Z,0.8
2019-05-15T08:46:15.453Z,1.1
2019-05-15T08:48:03.350Z,1.5
2019-05-15T08:49:15.399Z,1.4
2019-05-15T08:51:03.456Z,1.1
2019-05-15T08:52:15.387Z,1.2
2019-05-15T08:54:03.383Z,0.9
2019-05-15T08:55:15.450Z,0.8
2019-05-15T08:57:03.382Z,1.4
2019-05-15T08:58:15.446Z,0.8
2019-05-15T09:00:03.424Z,0.9
2019-05-15T09:00:44.733Z,0.8
2019-05-15T09:03:03.406Z,1.5
2019-05-15T09:04:38.458Z,1.1
2019-05-15T09:06:03.434Z,0.8
2019-05-15T09:06:42.271Z,1.1
2019-05-15T09:09:03.389Z,0.8
2019-05-15T09:10:15.404Z,0.8
2019-05-15T09:12:03.512Z,0.9
2019-05-15T09:13:15.391Z,0.6
2019-05-15T09:13:55.434Z,0.6
2019-05-15T09:15:03.409Z,0.8
2019-05-15T09:16:15.347Z,0.8
2019-05-15T09:18:20.602Z,1.2
2019-05-15T09:19:15.433Z,1.8
2019-05-15T09:21:03.340Z,1.5
2019-05-15T09:22:15.430Z,1.4
2019-05-15T09:24:03.676Z,1.1
2019-05-15T09:25:15.372Z,0.8
2019-05-15T09:27:03.417Z,1
2019-05-15T09:28:15.341Z,1
2019-05-15T09:30:03.362Z,1
2019-05-15T09:31:15.450Z,1
2019-05-15T09:33:03.575Z,1.1
2019-05-15T09:34:15.437Z,1.1
2019-05-15T09:34:58.988Z,0.9
2019-05-15T09:36:03.399Z,1.1
2019-05-15T09:36:48.840Z,1
2019-05-15T09:39:03.408Z,1.1
2019-05-15T09:40:15.485Z,1.1
2019-05-15T09:40:52.133Z,0.9
2019-05-15T09:42:03.345Z,0.8
2019-05-15T09:43:15.418Z,1.4
2019-05-15T09:45:03.438Z,1.1
2019-05-15T09:46:15.384Z,1
2019-05-15T09:48:03.598Z,1.3
2019-05-15T09:49:17.650Z,1.2
2019-05-15T09:51:03.356Z,1.3
2019-05-15T09:52:18.705Z,1
2019-05-15T09:54:03.364Z,1.1
2019-05-15T09:55:17.499Z,0.8
2019-05-15T09:57:03.441Z,0.4
2019-05-15T09:58:15.365Z,0.8
2019-05-15T10:00:03.438Z,0.8
2019-05-15T10:01:15.293Z,1
2019-05-15T10:03:03.364Z,0.8
2019-05-15T10:03:45.003Z,0.8
2019-05-15T10:05:12.038Z,0.8
2019-05-15T10:06:03.326Z,0.6
2019-05-15T10:07:15.406Z,0.6
2019-05-15T10:09:03.416Z,1.1
2019-05-15T10:10:15.338Z,0.8
2019-05-15T10:12:03.423Z,1
2019-05-15T10:13:15.300Z,1.6
2019-05-15T10:15:03.401Z,0.9
2019-05-15T10:16:15.393Z,1.2
2019-05-15T10:18:03.380Z,0.9
2019-05-15T10:19:15.352Z,1.3
2019-05-15T10:20:29.900Z,0.6
2019-05-15T10:21:03.437Z,0.6
2019-05-15T10:22:15.367Z,0.8
2019-05-15T10:22:55.064Z,0.6
2019-05-15T10:24:03.356Z,0.8
2019-05-15T10:25:15.296Z,0.6
2019-05-15T10:27:03.330Z,0.8
2019-05-15T10:28:19.795Z,1.1
2019-05-15T10:30:03.297Z,0.8
2019-05-15T10:31:15.345Z,1.1
2019-05-15T10:32:29.905Z,0.8
2019-05-15T10:33:03.585Z,0.9
2019-05-15T10:34:15.294Z,0.8
2019-05-15T10:35:32.520Z,0.8
2019-05-15T10:37:18.353Z,0.8
2019-05-15T10:38:40.112Z,1.6
2019-05-15T10:39:17.638Z,1.5
2019-05-15T10:39:53.623Z,1.1
2019-05-15T10:41:15.688Z,0.8
2019-05-15T10:43:03.301Z,0.9
2019-05-15T10:44:00.089Z,1
2019-05-15T10:46:03.458Z,0.8
2019-05-15T10:47:15.321Z,1.2
2019-05-15T10:48:30.221Z,0.9
2019-05-15T10:49:03.366Z,0.8
2019-05-15T10:50:15.291Z,0.8
2019-05-15T10:52:03.305Z,0.8
2019-05-15T10:53:15.411Z,0.9
2019-05-15T10:55:03.245Z,1
2019-05-15T10:56:15.335Z,0.8
2019-05-15T10:57:29.013Z,0.8
2019-05-15T10:58:03.583Z,0.8
2019-05-15T10:59:15.303Z,0.8
2019-05-15T11:00:29.499Z,0.8
2019-05-15T11:01:04.990Z,0.8
2019-05-15T11:02:15.267Z,1.1
2019-05-15T11:04:03.336Z,0.8
2019-05-15T11:05:15.337Z,1
2019-05-15T11:07:03.361Z,0.9
2019-05-15T11:08:15.309Z,0.8
2019-05-15T11:08:52.439Z,0.8
2019-05-15T11:10:03.342Z,0.6
2019-05-15T11:10:42.865Z,0.6
2019-05-15T11:11:52.498Z,0.8
2019-05-15T11:13:03.321Z,0.8
2019-05-15T11:13:51.309Z,0.8
2019-05-15T11:14:29.576Z,1.2
2019-05-15T11:15:03.287Z,1.4
2019-05-15T11:15:43.352Z,1.4
2019-05-15T11:17:32.229Z,0.8
2019-05-15T11:19:15.291Z,0.4
2019-05-15T11:20:27.357Z,0.6
2019-05-15T11:21:03.298Z,0.6
2019-05-15T11:22:15.251Z,0.8
2019-05-15T11:24:03.248Z,0.6
2019-05-15T11:25:15.337Z,0.8
2019-05-15T11:26:34.263Z,0.8
2019-05-15T11:28:15.353Z,0.6
2019-05-15T11:29:27.231Z,1
2019-05-15T11:30:03.363Z,1.2
2019-05-15T11:31:15.323Z,0.8
2019-05-15T11:33:03.753Z,1.1
2019-05-15T11:34:15.402Z,0.8
2019-05-15T11:36:07.101Z,0.6
2019-05-15T11:37:15.286Z,0.8
2019-05-15T11:37:57.877Z,0.8
2019-05-15T11:39:03.375Z,0.8
2019-05-15T11:39:48.052Z,0.8
2019-05-15T11:41:30.307Z,0.8
2019-05-15T11:42:03.309Z,0.6
2019-05-15T11:43:15.228Z,0.8
2019-05-15T11:45:03.310Z,0.8
2019-05-15T11:46:15.359Z,0.8
2019-05-15T11:47:28.769Z,1
2019-05-15T11:48:03.242Z,1
2019-05-15T11:49:15.334Z,0.8
2019-05-15T11:50:30.234Z,0.8
2019-05-15T11:51:03.348Z,0.8
2019-05-15T11:52:15.270Z,1
2019-05-15T11:53:29.312Z,0.8
2019-05-15T11:54:03.322Z,0.8
2019-05-15T11:55:15.278Z,0.8
2019-05-15T11:57:03.291Z,0.6
2019-05-15T11:57:56.271Z,0.7
2019-05-15T11:59:03.443Z,0.8
2019-05-15T11:59:56.343Z,0.8
2019-05-15T12:01:29.635Z,1
2019-05-15T12:02:03.370Z,1
2019-05-15T12:03:15.232Z,0.6
2019-05-15T12:04:34.830Z,0.8
2019-05-15T12:06:23.588Z,1.1
2019-05-15T12:07:03.261Z,0.8
2019-05-15T12:08:03.195Z,0.8
2019-05-15T12:09:15.229Z,0.7
2019-05-15T12:10:29.661Z,1
2019-05-15T12:11:03.261Z,1
2019-05-15T12:11:42.055Z,0.8
2019-05-15T12:13:28.837Z,0.8
2019-05-15T12:14:03.221Z,0.9
2019-05-15T12:15:15.168Z,0.8
2019-05-15T12:16:29.892Z,0.6
2019-05-15T12:17:15.995Z,0.8
2019-05-15T12:18:15.249Z,0.8
2019-05-15T12:19:30.098Z,0.8
2019-05-15T12:20:11.296Z,0.8
2019-05-15T12:21:20.867Z,0.6
2019-05-15T12:22:29.735Z,0.6
2019-05-15T12:23:03.251Z,0.4
2019-05-15T12:24:15.245Z,0.6
2019-05-15T12:25:32.621Z,0.8
2019-05-15T12:27:19.216Z,0.6
2019-05-15T12:29:03.208Z,0.8
2019-05-15T12:29:40.787Z,0.6
2019-05-15T12:30:15.271Z,0.8
2019-05-15T12:31:03.222Z,1
2019-05-15T12:32:40.485Z,0.9
2019-05-15T12:33:30.134Z,0.8
2019-05-15T12:34:03.344Z,0.8
2019-05-15T12:35:15.268Z,0.8
2019-05-15T12:36:58.464Z,0.8
2019-05-15T12:38:15.205Z,0.8
2019-05-15T12:39:31.259Z,1
2019-05-15T13:00:30.561Z,0.8
2019-05-15T13:01:22.339Z,0.8
2019-05-15T13:02:15.185Z,0.9
2019-05-15T13:03:29.716Z,0.9
2019-05-15T13:05:15.135Z,0.9
2019-05-15T13:06:29.465Z,0.8
2019-05-15T13:07:20.331Z,0.8
2019-05-15T13:08:15.125Z,0.8
2019-05-15T13:09:28.605Z,0.8
2019-05-15T13:11:18.514Z,0.9
2019-05-15T13:12:29.571Z,0.8
2019-05-15T13:13:15.129Z,0.8
2019-05-15T13:14:29.284Z,0.8
2019-05-15T13:16:15.150Z,0.8
2019-05-15T13:17:29.848Z,0.8
2019-05-15T13:19:15.209Z,0.2
2019-05-15T13:20:29.627Z,0.6
2019-05-15T13:22:25.175Z,0.6
2019-05-15T13:23:29.383Z,1
2019-05-15T13:24:03.707Z,0.8
2019-05-15T13:25:15.147Z,0.6
2019-05-15T13:26:27.978Z,1
2019-05-15T13:28:15.214Z,1.1
2019-05-15T13:29:29.740Z,0.8
2019-05-15T13:31:15.190Z,0.9
2019-05-15T13:32:29.373Z,0.6
2019-05-15T13:34:15.229Z,0.4
2019-05-15T13:35:29.319Z,0.6
2019-05-15T13:37:31.441Z,0.8
2019-05-15T13:38:29.553Z,0.8
2019-05-15T13:40:15.220Z,0.4
2019-05-15T13:41:29.126Z,0.8
2019-05-15T13:43:15.162Z,0.6
2019-05-15T13:44:30.142Z,0.8
2019-05-15T13:46:15.134Z,0.8
2019-05-15T13:47:29.031Z,0.8
2019-05-15T13:48:20.507Z,0.8
2019-05-15T13:49:29.065Z,0.8
2019-05-15T13:51:15.176Z,1.4
2019-05-15T13:52:29.256Z,0.9
2019-05-15T13:54:15.125Z,0.8
2019-05-15T13:55:43.020Z,0.8
2019-05-15T13:56:51.165Z,0.6
2019-05-15T13:57:30.512Z,0.4
2019-05-15T13:59:15.164Z,0.8
2019-05-15T14:00:29.778Z,0.8
2019-05-15T14:02:15.108Z,0.8
2019-05-15T14:03:29.383Z,0.8
2019-05-15T14:05:15.074Z,1.1
2019-05-15T14:06:29.526Z,1
2019-05-15T14:07:54.169Z,0.8
2019-05-15T14:09:35.184Z,0.8
2019-05-15T14:11:15.114Z,0.8
2019-05-15T14:12:28.593Z,0.8
2019-05-15T14:14:15.117Z,0.6
2019-05-15T14:15:27.158Z,0.8
2019-05-15T14:17:15.182Z,0.8
2019-05-15T14:18:29.374Z,0.8
2019-05-15T14:20:15.157Z,0.8
2019-05-15T14:21:29.376Z,0.8
2019-05-15T14:22:03.291Z,0.9
2019-05-15T14:23:15.131Z,0.8
2019-05-15T14:24:27.250Z,1.1
2019-05-15T14:26:24.814Z,0.9
2019-05-15T14:27:30.532Z,0.9
2019-05-15T14:29:15.182Z,0.8
2019-05-15T14:30:30.093Z,0.8
2019-05-15T14:32:15.174Z,0.6
2019-05-15T14:33:29.753Z,1
2019-05-15T14:35:15.116Z,1
2019-05-15T14:36:03.117Z,0.9
2019-05-15T14:37:15.164Z,0.9
2019-05-15T14:38:10.681Z,0.8
2019-05-15T14:40:15.119Z,1
2019-05-15T14:41:29.897Z,0.8
2019-05-15T14:42:05.498Z,0.9
2019-05-15T14:43:15.094Z,1
2019-05-15T14:44:27.227Z,0.9
2019-05-15T14:46:15.055Z,0.8
2019-05-15T14:47:30.011Z,0.8
2019-05-15T14:49:43.539Z,0.8
2019-05-15T14:50:03.309Z,0.8
2019-05-15T14:51:15.086Z,1.1
2019-05-15T14:52:09.938Z,1
2019-05-15T14:53:03.814Z,0.8
2019-05-15T14:54:15.079Z,0.9
2019-05-15T14:55:35.466Z,0.8
2019-05-15T14:57:18.240Z,0.8
2019-05-15T14:58:27.648Z,0.9
2019-05-15T15:00:15.129Z,1.1
2019-05-15T15:01:27.034Z,1
2019-05-15T15:03:15.096Z,0.9
2019-05-15T15:04:29.796Z,1
2019-05-15T15:06:15.180Z,1
2019-05-15T15:07:29.194Z,0.8
2019-05-15T15:08:28.341Z,0.8
2019-05-15T15:09:15.127Z,0.6
2019-05-15T15:10:29.872Z,0.8
2019-05-15T15:11:03.767Z,0.8
2019-05-15T15:12:15.092Z,0.8
2019-05-15T15:13:29.567Z,0.8
2019-05-15T15:15:15.061Z,0.9
2019-05-15T15:16:29.874Z,0.6
2019-05-15T15:17:03.309Z,0.8
2019-05-15T15:18:15.143Z,0.6
2019-05-15T15:19:30.038Z,0.2
2019-05-15T15:21:16.811Z,0.8
2019-05-15T15:22:29.977Z,0.6
2019-05-15T15:24:15.079Z,0.6
2019-05-15T15:25:27.138Z,0.8
2019-05-15T15:27:15.067Z,1
2019-05-15T15:28:27.176Z,1
2019-05-15T15:30:19.562Z,1.1
2019-05-15T15:31:29.684Z,1
2019-05-15T15:33:15.099Z,0.6
2019-05-15T15:34:29.215Z,0.9
2019-05-15T15:36:15.769Z,0.8
2019-05-15T15:37:29.840Z,0.9
2019-05-15T15:38:44.800Z,0.8
2019-05-15T15:40:29.155Z,0.8
2019-05-15T15:42:15.128Z,0.8
2019-05-15T15:43:29.543Z,0.8
2019-05-15T15:44:39.128Z,0.8
2019-05-15T15:45:15.106Z,0.8
2019-05-15T15:46:03.108Z,0.9
2019-05-15T15:47:15.027Z,0.9
2019-05-15T15:48:29.504Z,1
2019-05-15T15:50:15.128Z,0.8
2019-05-15T15:51:29.395Z,0.9
2019-05-15T15:53:51.042Z,0.4
2019-05-15T15:54:28.938Z,0.6
2019-05-15T15:55:03.109Z,0.8
2019-05-15T15:56:40.152Z,0.4
2019-05-15T15:57:15.080Z,0.6
2019-05-15T15:57:51.032Z,0.6
2019-05-15T15:58:29.763Z,0.6
2019-05-15T15:59:39.524Z,0.8
2019-05-15T16:00:51.236Z,0.6
2019-05-15T16:01:32.148Z,0.8
2019-05-15T16:02:42.012Z,0.8
2019-05-15T16:03:51.111Z,0.9
2019-05-15T16:04:29.012Z,0.9
2019-05-15T16:05:39.498Z,0.7
2019-05-15T16:06:51.081Z,0.9
2019-05-15T16:07:39.067Z,0.8
2019-05-15T16:08:58.746Z,0.9
2019-05-15T16:10:39.044Z,1
2019-05-15T16:11:51.091Z,0.8
2019-05-15T16:12:28.652Z,0.8
2019-05-15T16:13:39.517Z,0.8
2019-05-15T16:14:51.057Z,0.8
2019-05-15T16:15:29.982Z,0.8
2019-05-15T16:16:39.136Z,0.6
2019-05-15T16:18:03.095Z,0.8
2019-05-15T16:18:39.258Z,0.9
2019-05-15T16:19:51.075Z,0.8
2019-05-15T16:20:29.588Z,0.8
2019-05-15T16:21:40.264Z,0.8
2019-05-15T16:22:51.049Z,0.8
2019-05-15T16:23:29.767Z,0.8
2019-05-15T16:24:22.074Z,0.8
2019-05-15T16:25:51.070Z,1.2
2019-05-15T16:26:29.750Z,1.2
2019-05-15T16:27:39.308Z,1
2019-05-15T16:28:51.122Z,0.6
2019-05-15T16:29:29.094Z,0.6
2019-05-15T16:30:52.366Z,0.8
2019-05-15T16:31:51.058Z,0.4
2019-05-15T16:32:29.763Z,0.6
2019-05-15T16:33:39.864Z,0.6
2019-05-15T16:34:51.030Z,1
2019-05-15T16:35:29.444Z,0.8
2019-05-15T16:36:39.454Z,0.6
2019-05-15T16:37:51.095Z,0.8
2019-05-15T16:38:29.625Z,0.7
2019-05-15T16:39:12.454Z,0.6
2019-05-15T16:40:51.087Z,0.8
2019-05-15T16:41:29.798Z,0.9
2019-05-15T16:42:39.696Z,0.8